createdAt,value
2018-02-11T00:00:30.153Z,1001.56
2018-02-11T00:01:30.167Z,1001.58
2018-02-11T00:02:30.182Z,1001.51
2018-02-11T00:03:30.198Z,1001.46
2018-02-11T00:04:30.214Z,1001.46
2018-02-11T00:05:30.228Z,1001.43
2018-02-11T00:06:30.244Z,1001.34
2018-02-11T00:07:30.309Z,1001.36
2018-02-11T00:08:30.274Z,1001.36
2018-02-11T00:09:30.289Z,1001.32
2018-02-11T00:10:30.304Z,1001.30
2018-02-11T00:11:30.320Z,1001.32
2018-02-11T00:12:30.335Z,1001.24
2018-02-11T00:13:30.349Z,1001.18
2018-02-11T00:14:30.452Z,1001.14
2018-02-11T00:15:30.387Z,1001.20
2018-02-11T00:16:30.396Z,1001.14
2018-02-11T00:17:30.410Z,1001.18
2018-02-11T00:18:30.426Z,1001.12
2018-02-11T00:19:30.546Z,1001.16
2018-02-11T00:20:30.457Z,1001.12
2018-02-11T00:21:30.472Z,1001.11
2018-02-11T00:22:30.486Z,1001.12
2018-02-11T00:23:30.502Z,1001.13
2018-02-11T00:24:30.517Z,1001.12
2018-02-11T00:25:30.532Z,1001.04
2018-02-11T00:26:30.547Z,1001.03
2018-02-11T00:27:30.563Z,1000.98
2018-02-11T00:28:30.577Z,1000.90
2018-02-11T00:29:30.594Z,1000.93
2018-02-11T00:30:30.608Z,1000.85
2018-02-11T00:31:30.624Z,1000.84
2018-02-11T00:32:30.639Z,1000.79
2018-02-11T00:33:30.653Z,1000.74
2018-02-11T00:34:30.669Z,1000.76
2018-02-11T00:35:30.684Z,1000.76
2018-02-11T00:36:30.699Z,1000.76
2018-02-11T00:37:30.714Z,1000.74
2018-02-11T00:38:30.729Z,1000.73
2018-02-11T00:39:30.743Z,1000.71
2018-02-11T00:40:30.762Z,1000.71
2018-02-11T00:41:30.775Z,1000.67
2018-02-11T00:42:30.790Z,1000.68
2018-02-11T00:43:30.805Z,1000.65
2018-02-11T00:44:30.820Z,1000.65
2018-02-11T00:45:30.835Z,1000.68
2018-02-11T00:46:30.852Z,1000.60
2018-02-11T00:47:30.866Z,1000.62
2018-02-11T00:48:30.881Z,1000.60
2018-02-11T00:49:30.894Z,1000.56
2018-02-11T00:50:30.910Z,1000.57
2018-02-11T00:51:30.926Z,1000.53
2018-02-11T00:52:30.941Z,1000.50
2018-02-11T00:53:31.056Z,1000.52
2018-02-11T00:54:30.971Z,1000.50
2018-02-11T00:55:30.986Z,1000.48
2018-02-11T00:56:31.007Z,1000.50
2018-02-11T00:57:31.016Z,1000.44
2018-02-11T00:58:31.031Z,1000.44
2018-02-11T00:59:31.048Z,1000.46
2018-02-11T01:00:31.067Z,1000.44
2018-02-11T01:01:31.078Z,1000.45
2018-02-11T01:02:31.091Z,1000.45
2018-02-11T01:03:31.107Z,1000.39
2018-02-11T01:04:31.122Z,1000.34
2018-02-11T01:05:31.137Z,1000.34
2018-02-11T01:06:31.253Z,1000.30
2018-02-11T01:07:31.167Z,1000.30
2018-02-11T01:08:31.183Z,1000.22
2018-02-11T01:09:31.196Z,1000.23
2018-02-11T01:10:31.213Z,1000.16
2018-02-11T01:11:31.228Z,1000.14
2018-02-11T01:12:31.245Z,1000.16
2018-02-11T01:13:31.258Z,1000.05
2018-02-11T01:14:31.273Z,1000.12
2018-02-11T01:15:31.289Z,1000.06
2018-02-11T01:16:31.304Z,1000.04
2018-02-11T01:17:31.318Z,1000.02
2018-02-11T01:18:31.333Z,999.97
2018-02-11T01:19:31.349Z,999.95
2018-02-11T01:20:31.366Z,999.92
2018-02-11T01:21:31.379Z,999.95
2018-02-11T01:22:31.395Z,999.88
2018-02-11T01:23:31.410Z,999.90
2018-02-11T01:24:31.425Z,999.83
2018-02-11T01:25:31.440Z,999.79
2018-02-11T01:26:31.505Z,999.80
2018-02-11T01:27:31.470Z,999.76
2018-02-11T01:28:31.485Z,999.71
2018-02-11T01:29:31.502Z,999.73
2018-02-11T01:30:31.516Z,999.69
2018-02-11T01:31:31.531Z,999.70
2018-02-11T01:32:31.546Z,999.69
2018-02-11T01:33:31.561Z,999.67
2018-02-11T01:34:31.576Z,999.59
2018-02-11T01:35:31.590Z,999.57
2018-02-11T01:36:31.606Z,999.59
2018-02-11T01:37:31.620Z,999.55
2018-02-11T01:38:31.636Z,999.55
2018-02-11T01:39:31.652Z,999.46
2018-02-11T01:40:31.667Z,999.43
2018-02-11T01:41:31.681Z,999.45
2018-02-11T01:42:31.699Z,999.45
2018-02-11T01:43:31.812Z,999.41
2018-02-11T01:44:31.727Z,999.39
2018-02-11T01:45:31.742Z,999.35
2018-02-11T01:46:31.757Z,999.33
2018-02-11T01:47:31.773Z,999.36
2018-02-11T01:48:31.789Z,999.32
2018-02-11T01:49:31.802Z,999.35
2018-02-11T01:50:31.817Z,999.27
2018-02-11T01:51:31.833Z,999.23
2018-02-11T01:52:31.847Z,999.18
2018-02-11T01:53:31.863Z,999.24
2018-02-11T01:54:31.877Z,999.17
2018-02-11T01:55:31.893Z,999.15
2018-02-11T01:56:31.908Z,999.15
2018-02-11T01:57:31.923Z,999.09
2018-02-11T01:58:31.938Z,999.07
2018-02-11T01:59:31.953Z,999.13
2018-02-11T02:00:31.969Z,999.10
2018-02-11T02:01:31.983Z,999.05
2018-02-11T02:02:32.048Z,999.03
2018-02-11T02:03:32.013Z,998.98
2018-02-11T02:04:32.029Z,998.92
2018-02-11T02:05:32.043Z,998.90
2018-02-11T02:06:32.058Z,998.89
2018-02-11T02:07:32.073Z,998.81
2018-02-11T02:08:32.088Z,998.76
2018-02-11T02:09:32.102Z,998.69
2018-02-11T02:10:32.118Z,998.68
2018-02-11T02:11:32.132Z,998.57
2018-02-11T02:12:32.148Z,998.55
2018-02-11T02:13:32.162Z,998.54
2018-02-11T02:14:32.177Z,998.46
2018-02-11T02:15:32.193Z,998.44
2018-02-11T02:16:32.208Z,998.36
2018-02-11T02:17:32.221Z,998.35
2018-02-11T02:18:32.237Z,998.34
2018-02-11T02:19:32.252Z,998.32
2018-02-11T02:20:32.268Z,998.22
2018-02-11T02:21:32.323Z,998.17
2018-02-11T02:22:32.296Z,998.22
2018-02-11T02:23:32.311Z,998.20
2018-02-11T02:24:32.326Z,998.09
2018-02-11T02:25:32.341Z,998.07
2018-02-11T02:26:32.355Z,997.99
2018-02-11T02:27:32.370Z,998.07
2018-02-11T02:28:32.385Z,997.99
2018-02-11T02:29:32.399Z,998.00
2018-02-11T02:30:32.414Z,997.98
2018-02-11T02:31:32.429Z,997.96
2018-02-11T02:32:32.444Z,997.89
2018-02-11T02:33:32.458Z,997.87
2018-02-11T02:34:32.472Z,997.86
2018-02-11T02:35:32.488Z,997.85
2018-02-11T02:36:32.502Z,997.84
2018-02-11T02:37:32.516Z,997.79
2018-02-11T02:38:32.531Z,997.73
2018-02-11T02:39:32.545Z,997.69
2018-02-11T02:40:32.610Z,997.68
2018-02-11T02:41:32.576Z,997.62
2018-02-11T02:42:32.589Z,997.53
2018-02-11T02:43:32.604Z,997.54
2018-02-11T02:44:32.619Z,997.45
2018-02-11T02:45:32.632Z,997.40
2018-02-11T02:46:32.648Z,997.36
2018-02-11T02:47:32.662Z,997.40
2018-02-11T02:48:32.676Z,997.37
2018-02-11T02:49:32.694Z,997.17
2018-02-11T02:50:32.702Z,997.43
2018-02-11T02:51:32.718Z,997.20
2018-02-11T02:52:32.783Z,997.12
2018-02-11T02:53:32.755Z,997.23
2018-02-11T02:54:32.761Z,997.23
2018-02-11T02:55:32.776Z,996.99
2018-02-11T02:56:32.792Z,997.03
2018-02-11T02:57:32.804Z,996.94
2018-02-11T02:58:32.818Z,996.89
2018-02-11T02:59:32.834Z,997.00
2018-02-11T03:00:32.849Z,996.96
2018-02-11T03:01:32.861Z,996.84
2018-02-11T03:02:32.876Z,996.79
2018-02-11T03:03:32.891Z,996.73
2018-02-11T03:04:32.905Z,996.61
2018-02-11T03:05:32.918Z,996.55
2018-02-11T03:06:32.933Z,996.49
2018-02-11T03:07:32.946Z,996.46
2018-02-11T03:08:32.962Z,996.38
2018-02-11T03:09:32.976Z,996.43
2018-02-11T03:10:32.991Z,996.31
2018-02-11T03:11:33.006Z,996.32
2018-02-11T03:12:33.020Z,996.17
2018-02-11T03:13:33.034Z,996.15
2018-02-11T03:14:33.052Z,996.20
2018-02-11T03:15:33.063Z,996.17
2018-02-11T03:16:33.077Z,996.15
2018-02-11T03:17:33.091Z,996.17
2018-02-11T03:18:33.106Z,996.09
2018-02-11T03:19:33.120Z,996.08
2018-02-11T03:20:33.135Z,996.02
2018-02-11T03:21:33.149Z,996.04
2018-02-11T03:22:33.163Z,996.02
2018-02-11T03:23:33.178Z,995.97
2018-02-11T03:24:33.192Z,995.97
2018-02-11T03:25:33.206Z,995.94
2018-02-11T03:26:33.221Z,995.87
2018-02-11T03:27:33.236Z,995.84
2018-02-11T03:28:33.250Z,995.89
2018-02-11T03:29:33.264Z,995.86
2018-02-11T03:30:33.282Z,995.88
2018-02-11T03:31:33.294Z,995.77
2018-02-11T03:32:33.311Z,995.72
2018-02-11T03:33:33.322Z,995.66
2018-02-11T03:34:33.337Z,995.68
2018-02-11T03:35:33.355Z,995.67
2018-02-11T03:36:33.366Z,995.67
2018-02-11T03:37:33.379Z,995.61
2018-02-11T03:38:33.442Z,995.55
2018-02-11T03:39:33.410Z,995.54
2018-02-11T03:40:33.425Z,995.51
2018-02-11T03:41:33.439Z,995.52
2018-02-11T03:42:33.453Z,995.50
2018-02-11T03:43:33.569Z,995.48
2018-02-11T03:44:33.483Z,995.44
2018-02-11T03:45:33.497Z,995.40
2018-02-11T03:46:33.513Z,995.36
2018-02-11T03:47:33.526Z,995.37
2018-02-11T03:48:33.542Z,995.38
2018-02-11T03:49:33.555Z,995.37
2018-02-11T03:50:33.571Z,995.32
2018-02-11T03:51:33.585Z,995.35
2018-02-11T03:52:33.600Z,995.30
2018-02-11T03:53:33.614Z,995.32
2018-02-11T03:54:33.628Z,995.28
2018-02-11T03:55:33.644Z,995.26
2018-02-11T03:56:33.658Z,995.26
2018-02-11T03:57:33.673Z,995.19
2018-02-11T03:58:33.686Z,995.17
2018-02-11T03:59:33.702Z,995.17
2018-02-11T04:00:33.717Z,995.09
2018-02-11T04:01:33.730Z,995.17
2018-02-11T04:02:33.745Z,995.20
2018-02-11T04:03:33.760Z,995.20
2018-02-11T04:04:33.775Z,995.23
2018-02-11T04:05:33.840Z,995.18
2018-02-11T04:06:33.804Z,995.18
2018-02-11T04:07:33.819Z,995.11
2018-02-11T04:08:33.834Z,995.13
2018-02-11T04:09:33.848Z,995.03
2018-02-11T04:10:33.863Z,995.04
2018-02-11T04:11:33.878Z,995.08
2018-02-11T04:12:33.893Z,995.06
2018-02-11T04:13:33.907Z,995.06
2018-02-11T04:14:33.923Z,995.01
2018-02-11T04:15:33.937Z,994.97
2018-02-11T04:16:33.952Z,994.96
2018-02-11T04:17:33.966Z,994.95
2018-02-11T04:18:33.981Z,994.92
2018-02-11T04:19:33.996Z,994.87
2018-02-11T04:20:34.011Z,994.79
2018-02-11T04:21:34.025Z,994.76
2018-02-11T04:22:34.041Z,994.70
2018-02-11T04:23:34.056Z,994.76
2018-02-11T04:24:34.071Z,994.72
2018-02-11T04:25:34.084Z,994.69
2018-02-11T04:26:34.099Z,994.74
2018-02-11T04:27:34.115Z,994.69
2018-02-11T04:28:34.130Z,994.67
2018-02-11T04:29:34.144Z,994.66
2018-02-11T04:30:34.160Z,994.63
2018-02-11T04:31:34.174Z,994.57
2018-02-11T04:32:34.190Z,994.64
2018-02-11T04:33:34.204Z,994.60
2018-02-11T04:34:34.218Z,994.55
2018-02-11T04:35:34.234Z,994.55
2018-02-11T04:36:34.249Z,994.52
2018-02-11T04:37:34.261Z,994.46
2018-02-11T04:38:34.278Z,994.40
2018-02-11T04:39:34.292Z,994.45
2018-02-11T04:40:34.309Z,994.33
2018-02-11T04:41:34.325Z,994.34
2018-02-11T04:42:34.338Z,994.30
2018-02-11T04:43:34.353Z,994.26
2018-02-11T04:44:34.369Z,994.27
2018-02-11T04:45:34.382Z,994.23
2018-02-11T04:46:34.398Z,994.22
2018-02-11T04:47:34.413Z,994.20
2018-02-11T04:48:34.428Z,994.16
2018-02-11T04:49:34.442Z,994.05
2018-02-11T04:50:34.457Z,994.09
2018-02-11T04:51:34.472Z,993.99
2018-02-11T04:52:34.488Z,993.99
2018-02-11T04:53:34.502Z,993.96
2018-02-11T04:54:34.517Z,994.00
2018-02-11T04:55:34.532Z,993.94
2018-02-11T04:56:34.547Z,993.94
2018-02-11T04:57:34.561Z,993.91
2018-02-11T04:58:34.577Z,993.84
2018-02-11T04:59:34.592Z,993.85
2018-02-11T05:00:34.607Z,993.83
2018-02-11T05:01:34.621Z,993.83
2018-02-11T05:02:34.686Z,993.86
2018-02-11T05:03:34.651Z,993.81
2018-02-11T05:04:34.667Z,993.76
2018-02-11T05:05:34.681Z,993.74
2018-02-11T05:06:34.695Z,993.65
2018-02-11T05:07:34.711Z,993.70
2018-02-11T05:08:34.726Z,993.67
2018-02-11T05:09:34.740Z,993.60
2018-02-11T05:10:34.755Z,993.65
2018-02-11T05:11:34.770Z,993.55
2018-02-11T05:12:34.786Z,993.53
2018-02-11T05:13:34.800Z,993.44
2018-02-11T05:14:34.814Z,993.44
2018-02-11T05:15:34.831Z,993.42
2018-02-11T05:16:34.846Z,993.42
2018-02-11T05:17:34.860Z,993.37
2018-02-11T05:18:34.875Z,993.41
2018-02-11T05:19:34.890Z,993.31
2018-02-11T05:20:34.910Z,993.32
2018-02-11T05:21:34.919Z,993.30
2018-02-11T05:22:34.935Z,993.31
2018-02-11T05:23:34.950Z,993.27
2018-02-11T05:24:34.966Z,993.29
2018-02-11T05:25:34.980Z,993.28
2018-02-11T05:26:34.995Z,993.32
2018-02-11T05:27:35.010Z,993.22
2018-02-11T05:28:35.025Z,993.27
2018-02-11T05:29:35.040Z,993.19
2018-02-11T05:30:35.056Z,993.25
2018-02-11T05:31:35.070Z,993.24
2018-02-11T05:32:35.086Z,993.28
2018-02-11T05:33:35.100Z,993.22
2018-02-11T05:34:35.115Z,993.23
2018-02-11T05:35:35.129Z,993.18
2018-02-11T05:36:35.146Z,993.21
2018-02-11T05:37:35.161Z,993.16
2018-02-11T05:38:35.175Z,993.20
2018-02-11T05:39:35.189Z,993.13
2018-02-11T05:40:35.205Z,993.12
2018-02-11T05:41:35.219Z,993.09
2018-02-11T05:42:35.234Z,993.13
2018-02-11T05:43:35.250Z,993.10
2018-02-11T05:44:35.266Z,993.06
2018-02-11T05:45:35.278Z,992.96
2018-02-11T05:46:35.293Z,992.88
2018-02-11T05:47:35.309Z,992.91
2018-02-11T05:48:35.324Z,993.00
2018-02-11T05:49:35.341Z,992.91
2018-02-11T05:50:35.353Z,992.88
2018-02-11T05:51:35.369Z,992.85
2018-02-11T05:52:35.384Z,992.77
2018-02-11T05:53:35.397Z,992.79
2018-02-11T05:54:35.417Z,992.72
2018-02-11T05:55:35.427Z,992.75
2018-02-11T05:56:35.442Z,992.73
2018-02-11T05:57:35.464Z,992.76
2018-02-11T05:58:35.521Z,992.71
2018-02-11T05:59:35.486Z,992.68
2018-02-11T06:00:35.501Z,992.64
2018-02-11T06:01:35.515Z,992.70
2018-02-11T06:02:35.530Z,992.68
2018-02-11T06:03:35.545Z,992.63
2018-02-11T06:04:35.560Z,992.62
2018-02-11T06:05:35.625Z,992.60
2018-02-11T06:06:35.589Z,992.57
2018-02-11T06:07:35.604Z,992.56
2018-02-11T06:08:35.622Z,992.55
2018-02-11T06:09:35.636Z,992.58
2018-02-11T06:10:35.648Z,992.49
2018-02-11T06:11:35.663Z,992.47
2018-02-11T06:12:35.678Z,992.46
2018-02-11T06:13:35.692Z,992.43
2018-02-11T06:14:35.707Z,992.48
2018-02-11T06:15:35.722Z,992.49
2018-02-11T06:16:35.737Z,992.48
2018-02-11T06:17:35.801Z,992.48
2018-02-11T06:18:35.767Z,992.41
2018-02-11T06:19:35.780Z,992.45
2018-02-11T06:20:35.796Z,992.47
2018-02-11T06:21:35.810Z,992.53
2018-02-11T06:22:35.825Z,992.53
2018-02-11T06:23:35.865Z,992.55
2018-02-11T06:24:35.855Z,992.45
2018-02-11T06:25:35.869Z,992.41
2018-02-11T06:26:35.884Z,992.36
2018-02-11T06:27:35.899Z,992.37
2018-02-11T06:28:35.914Z,992.35
2018-02-11T06:29:35.974Z,992.39
2018-02-11T06:30:35.943Z,992.30
2018-02-11T06:31:35.958Z,992.28
2018-02-11T06:32:35.973Z,992.27
2018-02-11T06:33:35.987Z,992.34
2018-02-11T06:34:36.002Z,992.39
2018-02-11T06:35:36.017Z,992.22
2018-02-11T06:36:36.033Z,992.19
2018-02-11T06:37:36.047Z,992.30
2018-02-11T06:38:36.061Z,992.28
2018-02-11T06:39:36.076Z,992.33
2018-02-11T06:40:36.141Z,992.40
2018-02-11T06:41:36.106Z,992.31
2018-02-11T06:42:36.121Z,992.27
2018-02-11T06:43:36.136Z,992.37
2018-02-11T06:44:36.151Z,992.36
2018-02-11T06:45:36.165Z,992.35
2018-02-11T06:46:36.179Z,992.36
2018-02-11T06:47:36.245Z,992.34
2018-02-11T06:48:36.209Z,992.37
2018-02-11T06:49:36.225Z,992.41
2018-02-11T06:50:36.239Z,992.50
2018-02-11T06:51:36.254Z,992.46
2018-02-11T06:52:36.269Z,992.47
2018-02-11T06:53:36.283Z,992.41
2018-02-11T06:54:36.298Z,992.39
2018-02-11T06:55:36.316Z,992.53
2018-02-11T06:56:36.329Z,992.48
2018-02-11T06:57:36.344Z,992.48
2018-02-11T06:58:36.357Z,992.48
2018-02-11T06:59:36.372Z,992.42
2018-02-11T07:00:36.387Z,992.50
2018-02-11T07:01:36.402Z,992.48
2018-02-11T07:02:36.416Z,992.54
2018-02-11T07:03:36.432Z,992.59
2018-02-11T07:04:36.446Z,992.58
2018-02-11T07:05:36.460Z,992.57
2018-02-11T07:06:36.478Z,992.56
2018-02-11T07:07:36.490Z,992.53
2018-02-11T07:08:36.506Z,992.64
2018-02-11T07:09:36.520Z,992.55
2018-02-11T07:10:36.534Z,992.61
2018-02-11T07:11:36.597Z,992.60
2018-02-11T07:12:36.564Z,992.55
2018-02-11T07:13:36.578Z,992.64
2018-02-11T07:14:36.594Z,992.57
2018-02-11T07:15:36.659Z,992.64
2018-02-11T07:16:36.624Z,992.59
2018-02-11T07:17:36.638Z,992.60
2018-02-11T07:18:36.652Z,992.60
2018-02-11T07:19:36.668Z,992.55
2018-02-11T07:20:36.683Z,992.60
2018-02-11T07:21:36.699Z,992.63
2018-02-11T07:22:36.713Z,992.58
2018-02-11T07:23:36.728Z,992.66
2018-02-11T07:24:36.742Z,992.69
2018-02-11T07:25:36.762Z,992.66
2018-02-11T07:26:36.772Z,992.63
2018-02-11T07:27:36.787Z,992.71
2018-02-11T07:28:36.801Z,992.70
2018-02-11T07:29:36.816Z,992.57
2018-02-11T07:30:36.831Z,992.64
2018-02-11T07:31:36.846Z,992.66
2018-02-11T07:32:36.861Z,992.68
2018-02-11T07:33:36.876Z,992.70
2018-02-11T07:34:36.890Z,992.70
2018-02-11T07:35:36.905Z,992.67
2018-02-11T07:36:36.920Z,992.69
2018-02-11T07:37:36.935Z,992.68
2018-02-11T07:38:36.949Z,992.69
2018-02-11T07:39:36.965Z,992.65
2018-02-11T07:40:36.980Z,992.67
2018-02-11T07:41:36.994Z,992.68
2018-02-11T07:42:37.009Z,992.68
2018-02-11T07:43:37.024Z,992.70
2018-02-11T07:44:37.039Z,992.71
2018-02-11T07:45:37.105Z,992.72
2018-02-11T07:46:37.072Z,992.74
2018-02-11T07:47:37.084Z,992.71
2018-02-11T07:48:37.099Z,992.71
2018-02-11T07:49:37.112Z,992.73
2018-02-11T07:50:37.128Z,992.71
2018-02-11T07:51:37.142Z,992.70
2018-02-11T07:52:37.161Z,992.74
2018-02-11T07:53:37.222Z,992.74
2018-02-11T07:54:37.187Z,992.65
2018-02-11T07:55:37.202Z,992.71
2018-02-11T07:56:37.217Z,992.69
2018-02-11T07:57:37.231Z,992.72
2018-02-11T07:58:37.250Z,992.73
2018-02-11T07:59:37.261Z,992.78
2018-02-11T08:00:37.276Z,992.79
2018-02-11T08:01:37.290Z,992.82
2018-02-11T08:02:37.306Z,992.83
2018-02-11T08:03:37.320Z,992.83
2018-02-11T08:04:37.336Z,992.88
2018-02-11T08:05:37.349Z,992.78
2018-02-11T08:06:37.365Z,992.78
2018-02-11T08:07:37.380Z,992.74
2018-02-11T08:08:37.393Z,992.75
2018-02-11T08:09:37.409Z,992.77
2018-02-11T08:10:37.423Z,992.80
2018-02-11T08:11:37.440Z,992.78
2018-02-11T08:12:37.454Z,992.81
2018-02-11T08:13:37.468Z,992.81
2018-02-11T08:14:37.483Z,992.82
2018-02-11T08:15:37.499Z,992.82
2018-02-11T08:16:37.513Z,992.86
2018-02-11T08:17:37.528Z,992.82
2018-02-11T08:18:37.544Z,992.68
2018-02-11T08:19:37.559Z,992.68
2018-02-11T08:20:37.573Z,992.70
2018-02-11T08:21:37.587Z,992.77
2018-02-11T08:22:37.643Z,992.75
2018-02-11T08:23:37.618Z,992.69
2018-02-11T08:24:37.633Z,992.73
2018-02-11T08:25:37.699Z,992.81
2018-02-11T08:26:37.662Z,992.86
2018-02-11T08:27:37.678Z,992.82
2018-02-11T08:28:37.693Z,992.84
2018-02-11T08:29:37.707Z,992.76
2018-02-11T08:30:37.722Z,992.76
2018-02-11T08:31:37.737Z,992.83
2018-02-11T08:32:37.752Z,992.80
2018-02-11T08:33:37.766Z,992.79
2018-02-11T08:34:37.782Z,992.78
2018-02-11T08:35:37.847Z,992.78
2018-02-11T08:36:37.812Z,992.74
2018-02-11T08:37:37.826Z,992.75
2018-02-11T08:38:37.841Z,992.71
2018-02-11T08:39:37.856Z,992.78
2018-02-11T08:40:37.872Z,992.71
2018-02-11T08:41:37.886Z,992.70
2018-02-11T08:42:37.904Z,992.70
2018-02-11T08:43:37.967Z,992.71
2018-02-11T08:44:37.932Z,992.66
2018-02-11T08:45:37.948Z,992.65
2018-02-11T08:46:37.963Z,992.68
2018-02-11T08:47:37.977Z,992.62
2018-02-11T08:48:37.994Z,992.69
2018-02-11T08:49:38.007Z,992.69
2018-02-11T08:50:38.022Z,992.65
2018-02-11T08:51:38.037Z,992.59
2018-02-11T08:52:38.055Z,992.66
2018-02-11T08:53:38.067Z,992.65
2018-02-11T08:54:38.115Z,992.64
2018-02-11T08:55:38.098Z,992.68
2018-02-11T08:56:38.112Z,992.67
2018-02-11T08:57:38.127Z,992.73
2018-02-11T08:58:38.142Z,992.74
2018-02-11T08:59:38.158Z,992.70
2018-02-11T09:00:38.174Z,992.69
2018-02-11T09:01:38.188Z,992.73
2018-02-11T09:02:38.203Z,992.69
2018-02-11T09:03:38.219Z,992.67
2018-02-11T09:04:38.234Z,992.66
2018-02-11T09:05:38.248Z,992.73
2018-02-11T09:06:38.264Z,992.74
2018-02-11T09:07:38.280Z,992.74
2018-02-11T09:08:38.295Z,992.73
2018-02-11T09:09:38.309Z,992.77
2018-02-11T09:10:38.324Z,992.81
2018-02-11T09:11:38.341Z,992.76
2018-02-11T09:12:38.356Z,992.80
2018-02-11T09:13:38.372Z,992.73
2018-02-11T09:14:38.385Z,992.76
2018-02-11T09:15:38.401Z,992.68
2018-02-11T09:16:38.416Z,992.79
2018-02-11T09:17:38.431Z,992.72
2018-02-11T09:18:38.446Z,992.71
2018-02-11T09:19:38.467Z,992.79
2018-02-11T09:20:38.477Z,992.78
2018-02-11T09:21:38.492Z,992.80
2018-02-11T09:22:38.506Z,992.80
2018-02-11T09:23:38.524Z,992.78
2018-02-11T09:24:38.539Z,992.77
2018-02-11T09:25:38.554Z,992.79
2018-02-11T09:26:38.569Z,992.80
2018-02-11T09:27:38.584Z,992.72
2018-02-11T09:28:38.602Z,992.70
2018-02-11T09:29:38.615Z,992.71
2018-02-11T09:30:38.630Z,992.70
2018-02-11T09:31:38.646Z,992.70
2018-02-11T09:32:38.662Z,992.75
2018-02-11T09:33:38.676Z,992.76
2018-02-11T09:34:38.692Z,992.74
2018-02-11T09:35:38.707Z,992.78
2018-02-11T09:36:38.723Z,992.77
2018-02-11T09:37:38.738Z,992.78
2018-02-11T09:38:38.754Z,992.79
2018-02-11T09:39:38.771Z,992.84
2018-02-11T09:40:38.785Z,992.87
2018-02-11T09:41:38.799Z,992.81
2018-02-11T09:42:38.815Z,992.82
2018-02-11T09:43:38.832Z,992.83
2018-02-11T09:44:38.851Z,992.82
2018-02-11T09:45:38.861Z,992.82
2018-02-11T09:46:38.877Z,992.80
2018-02-11T09:47:38.893Z,992.78
2018-02-11T09:48:38.909Z,992.76
2018-02-11T09:49:38.924Z,992.81
2018-02-11T09:50:38.939Z,992.83
2018-02-11T09:51:38.955Z,992.91
2018-02-11T09:52:38.971Z,992.89
2018-02-11T09:53:38.986Z,992.83
2018-02-11T09:54:39.002Z,992.85
2018-02-11T09:55:39.017Z,992.80
2018-02-11T09:56:39.034Z,992.80
2018-02-11T09:57:39.048Z,992.78
2018-02-11T09:58:39.064Z,992.74
2018-02-11T09:59:39.082Z,992.77
2018-02-11T10:00:39.096Z,992.82
2018-02-11T10:01:39.110Z,992.81
2018-02-11T10:02:39.127Z,992.74
2018-02-11T10:03:39.142Z,992.80
2018-02-11T10:04:39.197Z,992.76
2018-02-11T10:05:39.173Z,992.79
2018-02-11T10:06:39.189Z,992.79
2018-02-11T10:07:39.208Z,992.83
2018-02-11T10:08:39.220Z,992.83
2018-02-11T10:09:39.236Z,992.91
2018-02-11T10:10:39.252Z,992.92
2018-02-11T10:11:39.269Z,992.92
2018-02-11T10:12:39.284Z,992.95
2018-02-11T10:13:39.299Z,992.89
2018-02-11T10:14:39.315Z,992.94
2018-02-11T10:15:39.331Z,992.96
2018-02-11T10:16:39.347Z,992.94
2018-02-11T10:17:39.362Z,992.96
2018-02-11T10:18:39.379Z,992.95
2018-02-11T10:19:39.395Z,992.95
2018-02-11T10:20:39.411Z,992.90
2018-02-11T10:21:39.428Z,992.94
2018-02-11T10:22:39.442Z,992.89
2018-02-11T10:23:39.505Z,992.88
2018-02-11T10:24:39.474Z,992.93
2018-02-11T10:25:39.490Z,992.93
2018-02-11T10:26:39.505Z,992.94
2018-02-11T10:27:39.522Z,992.97
2018-02-11T10:28:39.537Z,992.97
2018-02-11T10:29:39.557Z,992.98
2018-02-11T10:30:39.570Z,993.02
2018-02-11T10:31:39.586Z,993.01
2018-02-11T10:32:39.603Z,993.04
2018-02-11T10:33:39.617Z,993.00
2018-02-11T10:34:39.634Z,992.97
2018-02-11T10:35:39.651Z,992.95
2018-02-11T10:36:39.667Z,993.05
2018-02-11T10:37:39.682Z,993.02
2018-02-11T10:38:39.699Z,993.00
2018-02-11T10:39:39.715Z,993.01
2018-02-11T10:40:39.731Z,993.05
2018-02-11T10:41:39.747Z,993.04
2018-02-11T10:42:39.763Z,993.02
2018-02-11T10:43:39.780Z,993.08
2018-02-11T10:44:39.796Z,993.08
2018-02-11T10:45:39.812Z,993.05
2018-02-11T10:46:39.828Z,993.05
2018-02-11T10:47:39.845Z,993.07
2018-02-11T10:48:39.862Z,993.07
2018-02-11T10:49:39.979Z,993.05
2018-02-11T10:50:39.894Z,993.03
2018-02-11T10:51:39.910Z,993.01
2018-02-11T10:52:39.927Z,993.03
2018-02-11T10:53:39.943Z,993.03
2018-02-11T10:54:39.959Z,992.99
2018-02-11T10:55:39.976Z,993.04
2018-02-11T10:56:39.993Z,993.06
2018-02-11T10:57:40.009Z,993.08
2018-02-11T10:58:40.025Z,993.08
2018-02-11T10:59:40.042Z,993.10
2018-02-11T11:00:40.058Z,993.04
2018-02-11T11:01:40.074Z,993.16
2018-02-11T11:02:40.091Z,993.02
2018-02-11T11:03:40.109Z,993.11
2018-02-11T11:04:40.126Z,993.09
2018-02-11T11:05:40.141Z,993.05
2018-02-11T11:06:40.158Z,993.02
2018-02-11T11:07:40.176Z,993.06
2018-02-11T11:08:40.192Z,993.06
2018-02-11T11:09:40.208Z,993.03
2018-02-11T11:10:40.225Z,993.04
2018-02-11T11:11:40.242Z,992.98
2018-02-11T11:12:40.259Z,993.06
2018-02-11T11:13:40.280Z,993.07
2018-02-11T11:14:40.294Z,993.04
2018-02-11T11:15:40.310Z,993.05
2018-02-11T11:16:40.327Z,992.97
2018-02-11T11:17:40.343Z,992.98
2018-02-11T11:18:40.364Z,993.03
2018-02-11T11:19:40.377Z,993.00
2018-02-11T11:20:40.395Z,993.28
2018-02-11T11:21:40.411Z,993.29
2018-02-11T11:22:40.429Z,993.07
2018-02-11T11:23:40.446Z,993.05
2018-02-11T11:24:40.464Z,993.07
2018-02-11T11:25:40.484Z,993.09
2018-02-11T11:26:40.498Z,993.11
2018-02-11T11:27:40.516Z,993.11
2018-02-11T11:28:40.534Z,993.08
2018-02-11T11:29:40.551Z,993.10
2018-02-11T11:30:40.569Z,993.08
2018-02-11T11:31:40.587Z,993.08
2018-02-11T11:32:40.608Z,993.09
2018-02-11T11:33:40.621Z,993.06
2018-02-11T11:34:40.640Z,993.10
2018-02-11T11:35:40.658Z,993.12
2018-02-11T11:36:40.676Z,993.03
2018-02-11T11:37:40.693Z,993.11
2018-02-11T11:38:40.754Z,993.13
2018-02-11T11:39:40.729Z,993.16
2018-02-11T11:40:40.746Z,993.12
2018-02-11T11:41:40.763Z,993.17
2018-02-11T11:42:40.781Z,993.11
2018-02-11T11:43:40.800Z,993.15
2018-02-11T11:44:40.817Z,993.19
2018-02-11T11:45:40.834Z,993.18
2018-02-11T11:46:40.852Z,993.10
2018-02-11T11:47:40.873Z,993.02
2018-02-11T11:48:40.888Z,993.12
2018-02-11T11:49:40.906Z,993.14
2018-02-11T11:50:40.923Z,993.15
2018-02-11T11:51:40.942Z,993.19
2018-02-11T11:52:40.959Z,993.21
2018-02-11T11:53:40.976Z,993.18
2018-02-11T11:54:40.994Z,993.16
2018-02-11T11:55:41.012Z,993.15
2018-02-11T11:56:41.030Z,993.21
2018-02-11T11:57:41.047Z,993.17
2018-02-11T11:58:41.064Z,993.19
2018-02-11T11:59:41.083Z,993.22
2018-02-11T12:00:41.100Z,993.16
2018-02-11T12:01:41.118Z,993.21
2018-02-11T12:02:41.135Z,993.17
2018-02-11T12:03:41.154Z,993.15
2018-02-11T12:04:41.171Z,993.21
2018-02-11T12:05:41.188Z,993.19
2018-02-11T12:06:41.210Z,993.18
2018-02-11T12:07:41.224Z,993.20
2018-02-11T12:08:41.242Z,993.19
2018-02-11T12:09:41.259Z,993.16
2018-02-11T12:10:41.278Z,993.15
2018-02-11T12:11:41.295Z,993.18
2018-02-11T12:12:41.313Z,993.23
2018-02-11T12:13:41.332Z,993.16
2018-02-11T12:14:41.348Z,993.17
2018-02-11T12:15:41.366Z,993.15
2018-02-11T12:16:41.384Z,993.14
2018-02-11T12:17:41.401Z,993.14
2018-02-11T12:18:41.418Z,993.17
2018-02-11T12:19:41.436Z,993.14
2018-02-11T12:20:41.454Z,993.16
2018-02-11T12:21:41.471Z,993.12
2018-02-11T12:22:41.489Z,993.05
2018-02-11T12:23:41.507Z,993.10
2018-02-11T12:24:41.525Z,993.17
2018-02-11T12:25:41.543Z,993.07
2018-02-11T12:26:41.559Z,993.10